createdAt,value
2023-02-13T00:04:07.981Z,11.73
2023-02-13T00:09:10.383Z,11.80
2023-02-13T00:14:13.981Z,10.50
2023-02-13T00:19:17.292Z,9.13
2023-02-13T00:24:19.346Z,9.73
2023-02-13T00:29:22.804Z,9.83
2023-02-13T00:34:24.611Z,9.60
2023-02-13T00:39:26.469Z,5.33
2023-02-13T00:44:29.964Z,5.23
2023-02-13T00:49:32.037Z,3.80
2023-02-13T00:54:34.080Z,2.70
2023-02-13T00:59:37.841Z,2.20
2023-02-13T01:04:39.920Z,2.17
2023-02-13T01:09:42.103Z,2.33
2023-02-13T01:14:45.599Z,2.10
2023-02-13T01:19:47.984Z,2.10
2023-02-13T01:24:50.074Z,1.73
2023-02-13T01:29:53.252Z,2.20
2023-02-13T01:34:55.007Z,2.33
2023-02-13T01:39:57.606Z,2.03
2023-02-13T01:45:02.151Z,2.30
2023-02-13T01:50:08.386Z,2.40
2023-02-13T01:55:12.156Z,4.20
2023-02-13T02:00:18.172Z,3.80
2023-02-13T02:05:22.422Z,5.07
2023-02-13T02:10:24.609Z,5.10
2023-02-13T02:15:28.745Z,4.33
2023-02-13T02:20:52.025Z,5.33
2023-02-13T02:26:33.029Z,5.37
2023-02-13T02:32:06.627Z,5.57
2023-02-13T02:37:28.962Z,6.60
2023-02-13T02:42:40.909Z,6.93
2023-02-13T02:47:54.413Z,5.53
2023-02-13T02:53:14.422Z,6.50
2023-02-13T02:58:20.765Z,6.10
2023-02-13T03:03:25.519Z,7.70
2023-02-13T03:08:29.590Z,6.50
2023-02-13T03:13:38.918Z,6.30
2023-02-13T03:18:46.258Z,7.80
2023-02-13T03:23:59.884Z,6.53
2023-02-13T03:29:12.687Z,6.63
2023-02-13T03:34:21.798Z,6.23
2023-02-13T03:39:31.718Z,7.13
2023-02-13T03:44:40.944Z,7.40
2023-02-13T03:49:49.862Z,6.03
2023-02-13T03:54:56.491Z,7.37
2023-02-13T04:00:01.237Z,7.23
2023-02-13T04:05:09.978Z,5.80
2023-02-13T04:10:15.368Z,7.30
2023-02-13T04:15:21.058Z,6.93
2023-02-13T04:20:27.582Z,6.87
2023-02-13T04:25:29.537Z,7.10
2023-02-13T04:30:31.771Z,7.23
2023-02-13T04:35:35.185Z,5.73
2023-02-13T04:40:37.322Z,5.97
2023-02-13T04:45:39.296Z,5.93
2023-02-13T04:50:42.464Z,5.47
2023-02-13T04:55:44.712Z,5.17
2023-02-13T05:00:46.999Z,5.20
2023-02-13T05:05:50.839Z,6.33
2023-02-13T05:10:52.764Z,6.33
2023-02-13T05:15:54.969Z,7.43
2023-02-13T05:20:58.922Z,7.57
2023-02-13T05:26:01.278Z,6.80
2023-02-13T05:31:03.777Z,8.77
2023-02-13T05:36:08.306Z,7.30
2023-02-13T05:41:10.561Z,7.97
2023-02-13T05:46:12.338Z,7.13
2023-02-13T05:51:16.165Z,7.80
2023-02-13T05:56:18.010Z,8.23
2023-02-13T06:01:20.562Z,10.30
2023-02-13T06:06:23.778Z,8.27
2023-02-13T06:11:25.901Z,7.87
2023-02-13T06:16:28.035Z,7.70
2023-02-13T06:21:31.543Z,7.30
2023-02-13T06:26:33.637Z,7.67
2023-02-13T06:31:35.732Z,7.97
2023-02-13T06:36:39.536Z,6.83
2023-02-13T06:41:41.665Z,6.80
2023-02-13T06:46:43.578Z,7.40
2023-02-13T06:51:47.240Z,8.70
2023-02-13T06:56:49.213Z,8.00
2023-02-13T07:01:51.167Z,6.93
2023-02-13T07:06:56.144Z,7.80
2023-02-13T07:11:58.984Z,7.83
2023-02-13T07:17:00.995Z,9.20
2023-02-13T07:22:04.474Z,7.00
2023-02-13T07:27:06.758Z,7.17
2023-02-13T07:32:08.947Z,7.10
2023-02-13T07:37:12.522Z,7.33
2023-02-13T07:42:14.351Z,6.87
2023-02-13T07:47:18.302Z,6.57
2023-02-13T07:52:22.814Z,6.03
2023-02-13T07:57:24.992Z,5.67
2023-02-13T08:02:27.031Z,6.03
2023-02-13T08:07:31.181Z,6.03
2023-02-13T08:12:36.078Z,6.50
2023-02-13T08:17:38.353Z,6.60
2023-02-13T08:22:41.546Z,6.37
2023-02-13T08:27:44.002Z,6.10
2023-02-13T08:32:54.249Z,6.73
2023-02-13T08:38:02.389Z,6.10
2023-02-13T08:43:06.365Z,5.77
2023-02-13T08:48:08.805Z,5.10
2023-02-13T08:53:12.321Z,5.27
2023-02-13T08:58:14.137Z,5.40
2023-02-13T09:03:16.760Z,5.10
2023-02-13T09:08:20.504Z,6.43
2023-02-13T09:13:22.702Z,4.53
2023-02-13T09:18:24.849Z,4.87
2023-02-13T09:23:31.426Z,4.63
2023-02-13T09:28:35.431Z,5.10
2023-02-13T09:33:37.854Z,5.07
2023-02-13T09:38:41.417Z,5.43
2023-02-13T09:43:47.567Z,5.13
2023-02-13T09:48:54.077Z,5.50
2023-02-13T09:54:00.375Z,6.30
2023-02-13T09:59:08.292Z,6.17
2023-02-13T10:04:30.434Z,5.80
2023-02-13T10:09:44.821Z,5.83
2023-02-13T10:14:58.667Z,5.23
2023-02-13T10:20:05.407Z,5.03
2023-02-13T10:25:17.166Z,4.73
2023-02-13T10:30:22.500Z,4.87
2023-02-13T10:35:29.871Z,5.00
2023-02-13T10:40:39.138Z,4.67
2023-02-13T10:45:54.453Z,5.87
2023-02-13T10:51:06.059Z,5.50
2023-02-13T10:56:25.454Z,5.30
2023-02-13T11:01:36.203Z,5.50
2023-02-13T11:06:42.716Z,5.20
2023-02-13T11:11:45.924Z,6.17
2023-02-13T11:16:51.216Z,5.57
2023-02-13T11:21:56.768Z,6.07
2023-02-13T11:27:03.043Z,7.07
2023-02-13T11:32:22.235Z,6.20
2023-02-13T11:37:26.859Z,6.73
2023-02-13T11:42:34.313Z,7.20
2023-02-13T11:47:39.499Z,6.73
2023-02-13T11:52:42.335Z,6.27
2023-02-13T11:57:56.674Z,5.90
2023-02-13T12:02:58.929Z,7.03
2023-02-13T12:08:01.555Z,6.70
2023-02-13T12:13:14.522Z,6.37
2023-02-13T12:18:22.935Z,6.10
2023-02-13T12:23:34.105Z,4.97
2023-02-13T12:28:52.640Z,6.37
2023-02-13T12:34:23.078Z,6.87
2023-02-13T12:39:31.425Z,5.50
2023-02-13T12:45:00.766Z,5.23
2023-02-13T12:50:23.950Z,5.87
2023-02-13T12:56:06.672Z,5.27
2023-02-13T13:01:24.204Z,5.70
2023-02-13T13:06:54.573Z,5.50
2023-02-13T13:12:17.589Z,5.43
2023-02-13T13:17:34.292Z,5.30
2023-02-13T13:22:43.825Z,5.13
2023-02-13T13:27:50.158Z,5.37
2023-02-13T13:33:00.822Z,5.07
2023-02-13T13:38:13.271Z,5.57
2023-02-13T13:43:23.643Z,4.87
2023-02-13T13:48:50.629Z,5.43
2023-02-13T13:54:19.435Z,5.73
2023-02-13T14:00:00.025Z,4.43
2023-02-13T14:05:18.279Z,5.67
2023-02-13T14:11:05.662Z,4.80
2023-02-13T14:16:11.890Z,5.17
2023-02-13T14:21:24.056Z,5.47
2023-02-13T14:26:32.844Z,5.87
2023-02-13T14:31:36.421Z,4.53
2023-02-13T14:36:42.351Z,5.37
2023-02-13T14:41:57.397Z,5.77
2023-02-13T14:47:02.234Z,5.93
2023-02-13T14:52:09.742Z,5.07
2023-02-13T14:57:18.337Z,4.73
2023-02-13T15:02:24.410Z,5.47
2023-02-13T15:07:31.115Z,5.40
2023-02-13T15:12:34.718Z,5.13
2023-02-13T15:17:37.087Z,5.47
2023-02-13T15:22:46.086Z,5.37
2023-02-13T15:27:52.755Z,5.57
2023-02-13T15:32:56.209Z,5.43
2023-02-13T15:38:01.056Z,5.67
2023-02-13T15:43:04.341Z,6.00
2023-02-13T15:48:06.560Z,5.67
2023-02-13T15:53:15.424Z,6.17
2023-02-13T15:58:17.665Z,6.57
2023-02-13T16:03:20.626Z,5.73
2023-02-13T16:08:33.686Z,6.03
2023-02-13T16:13:36.164Z,5.17
2023-02-13T16:18:40.660Z,6.67
2023-02-13T16:23:45.993Z,6.43
2023-02-13T16:28:49.018Z,6.63
2023-02-13T16:33:51.088Z,5.60
2023-02-13T16:38:54.728Z,6.17
2023-02-13T16:43:58.320Z,6.57
2023-02-13T16:49:19.919Z,6.17
2023-02-13T16:54:28.273Z,5.57
2023-02-13T16:59:41.644Z,5.97
2023-02-13T17:04:45.685Z,6.10
2023-02-13T17:10:00.825Z,6.43
2023-02-13T17:15:03.235Z,5.73
2023-02-13T17:20:06.212Z,6.90
2023-02-13T17:25:17.034Z,10.10
2023-02-13T17:30:21.397Z,7.77
2023-02-13T17:35:23.612Z,7.77
2023-02-13T17:40:28.651Z,6.27
2023-02-13T17:45:34.267Z,6.20
2023-02-13T17:50:37.135Z,5.53
2023-02-13T17:55:41.092Z,6.30
2023-02-13T18:00:43.415Z,6.27
2023-02-13T18:05:47.485Z,7.50
2023-02-13T18:10:50.728Z,6.40
2023-02-13T18:15:52.877Z,7.17
2023-02-13T18:20:56.356Z,7.37
2023-02-13T18:26:07.932Z,6.83
2023-02-13T18:31:10.323Z,6.90
2023-02-13T18:36:12.764Z,7.13
2023-02-13T18:41:16.081Z,7.40
2023-02-13T18:46:18.191Z,6.43
2023-02-13T18:51:20.218Z,6.37
2023-02-13T18:56:23.507Z,7.17
2023-02-13T19:01:26.083Z,6.93
2023-02-13T19:06:28.251Z,6.97
2023-02-13T19:11:31.480Z,7.10
2023-02-13T19:16:35.341Z,7.60
2023-02-13T19:21:39.719Z,7.60
2023-02-13T19:26:43.543Z,7.73
2023-02-13T19:31:45.910Z,6.97
2023-02-13T19:36:47.795Z,7.80
2023-02-13T19:41:51.422Z,7.40
2023-02-13T19:46:53.712Z,7.20
2023-02-13T19:51:56.066Z,6.23
2023-02-13T19:56:59.512Z,6.43
2023-02-13T20:02:01.863Z,7.03
2023-02-13T20:07:07.813Z,7.47
2023-02-13T20:12:11.281Z,7.20
2023-02-13T20:17:13.520Z,7.90
2023-02-13T20:22:15.808Z,7.67
2023-02-13T20:27:19.939Z,8.17
2023-02-13T20:32:22.213Z,6.87
2023-02-13T20:37:24.370Z,8.57
2023-02-13T20:42:27.966Z,8.10
2023-02-13T20:47:30.626Z,9.23
2023-02-13T20:52:34.271Z,7.73
2023-02-13T20:57:38.349Z,7.97
2023-02-13T21:02:41.103Z,7.83
2023-02-13T21:07:43.513Z,7.97
2023-02-13T21:12:47.098Z,8.07
2023-02-13T21:17:49.319Z,8.87
2023-02-13T21:22:51.306Z,8.27
2023-02-13T21:27:54.808Z,8.57
2023-02-13T21:32:56.559Z,9.10
2023-02-13T21:37:58.726Z,8.90
2023-02-13T21:43:02.176Z,9.33
2023-02-13T21:48:04.946Z,8.47
2023-02-13T21:53:07.033Z,8.77
2023-02-13T21:58:10.297Z,8.20
2023-02-13T22:03:12.323Z,8.57
2023-02-13T22:08:14.517Z,9.40
2023-02-13T22:13:18.004Z,8.37
2023-02-13T22:18:20.054Z,8.53
2023-02-13T22:23:21.827Z,8.10
2023-02-13T22:28:25.413Z,9.17
2023-02-13T22:33:27.942Z,9.23
2023-02-13T22:38:32.263Z,9.27
2023-02-13T22:43:35.946Z,8.17
2023-02-13T22:48:39.289Z,8.70
2023-02-13T22:53:41.520Z,9.03
2023-02-13T22:58:45.005Z,8.13
2023-02-13T23:03:47.143Z,9.07
2023-02-13T23:08:49.934Z,8.63
2023-02-13T23:13:53.537Z,7.40
2023-02-13T23:18:57.484Z,10.07
2023-02-13T23:23:59.780Z,8.80
2023-02-13T23:29:03.072Z,8.97
2023-02-13T23:34:05.398Z,9.30
2023-02-13T23:39:07.499Z,8.73
2023-02-13T23:44:11.134Z,8.87
2023-02-13T23:49:13.403Z,9.53
2023-02-13T23:54:16.423Z,9.63
2023-02-13T23:59:20.848Z,9.37
